NWS Home NWS Lubbock West Texas Mesonet South Sector Latest Conditions as of 1031 AM, Tue Jul 17, 2018

Latest   N   C   S   Daily Sum   3hrΔ   24hrΔ   Soil Data 
Site Map   24hr Precip   72hr Precip   Google Plot


Station Time of Last Temp Dew Pt. RH Wind Direction Wind Speed Wind Gust Max Wind Max Temp Min Temp Max RH Min RH Altimeter 1HR Rain Today's Rain Solar Rad
Andrews 2E  10:25 AM 85 55 37% S813 20 mph 179° @ 0855 AM 85 73 53 37 30.18" 0 0.00 587
Aspermont 3NE  10:25 AM 90 60 38% SW1622 25 mph 224° @ 0930 AM 90 76 53 38 30.09" 0 0.00 618
Big Bend NP - Persimmon Gap  10:25 AM 81 61 50% NE78 16 mph 15° @ 1216 AM 81 71 71 50 30.15" 0 0.00 604
Big Lake 1WNW  10:25 AM 85 63 47% SE810 21 mph 160° @ 0845 AM 85 72 65 43 30.16" 0 0.00 654
Brownfield 2S  10:25 AM 85 55 37% SW1115 19 mph 208° @ 0930 AM 85 70 60 37 30.18" 0 0.00 643
Clyde 2WNW  10:25 AM 87 62 43% SW1417 24 mph 221° @ 0939 AM 87 75 66 41 30.13" 0 0.00 644
Colorado City 5NW  10:25 AM 88 61 41% S1114 18 mph 202° @ 0945 AM 88 72 66 41 30.14" 0 0.00 615
Coyanosa 2N  10:25 AM 85 64 50% SE67 12 mph 121° @ 0820 AM 85 68 89 50 30.13" 0 0.00 569
Dell City  10:25 AM 75 68 78% E12 8 mph 283° @ 0140 AM 75 63 100 76 30.22" 0.02 0.02 600
Denver City 7WNW  10:25 AM 82 55 42% S1114 16 mph 195° @ 0200 AM 82 65 75 42 30.20" 0 0.00 613
Fluvanna 3WNW  10:25 AM 85 53 35% SW1417 22 mph 221° @ 0955 AM 85 73 49 34 30.15" 0 0.00 558
Fort Chadbourne  10:25 AM 87 64 48% SW79 17 mph 225° @ 1005 AM 87 69 74 37 30.13" 0 0.00 628
Fort Lancaster  10:25 AM 84 65 54% SE911 18 mph 137° @ 0501 AM 85 77 58 38 30.13" 0 0.00 591
Fort McKavett  10:25 AM 86 61 42% SW710 16 mph 164° @ 0248 AM 86 71 89 41 30.15" 0 0.00 628
Gail 2ESE  10:25 AM 85 57 39% S912 19 mph 208° @ 0825 AM 85 71 61 39 30.14" 0 0.00 601
Graham 5SSW  10:25 AM 85 54 36% SW1115 18 mph 191° @ 0915 AM 85 74 53 36 30.16" 0 0.00 599
Guadalupe Mtns Natl Park  10:25 AM 74 60 64% SW79 15 mph 295° @ 0716 AM 77 65 72 41 30.32" 0 0.00 633
Haskell 1NW  10:25 AM 88 57 37% SW1825 26 mph 224° @ 0955 AM 88 74 62 37 30.08" 0 0.00 563
Hobbs NM 5NW  10:25 AM 81 55 40% S812 16 mph 174° @ 0142 AM 82 68 65 36 30.23" 0 0.00 574
Jayton 1SSE  10:25 AM 89 54 32% SW1622 23 mph 225° @ 0950 AM 89 75 51 32 30.10" 0 0.00 620
Junction 1SSW  10:25 AM 84 64 51% S79 18 mph 150° @ 1205 AM 85 71 92 44 30.14" 0 0.00 533
Lake Alan Henry 1NW  10:25 AM 87 57 36% SW1420 22 mph 233° @ 1015 AM 88 76 51 36 30.12" 0 0.00 629
Lamesa 2SE  10:25 AM 84 58 44% S1013 17 mph 203° @ 0945 AM 84 67 73 44 30.18" 0 0.00 651
Lomax 1SSE  10:25 AM 87 58 39% S1215 23 mph 192° @ 0903 AM 87 73 55 36 30.15" 0 0.00 653
McCamey 1SSW  10:25 AM 85 60 43% SE1113 17 mph 145° @ 0957 AM 85 75 54 41 30.15" 0 0.00 550
Menard 2NW   10:25 AM 86 60 41% SW69 14 mph 199° @ 0916 AM 86 69 87 40 30.14" 0 0.00 603
Mertzon 3NNE  10:25 AM 87 64 46% S1315 21 mph 196° @ 0849 AM 88 74 70 39 30.14" 0 0.00 588
New Home  10:25 AM 85 59 41% SW1516 20 mph 216° @ 0923 AM 85 70 63 41 30.19" 0 0.00 638
O'Donnell 1N  10:25 AM 83 54 39% SW1417 19 mph 201° @ 1010 AM 83 69 70 39 30.17" 0 0.00 565
Plains 3N  10:25 AM 84 56 40% S1620 20 mph 206° @ 1005 AM 84 66 70 40 30.20" 0 0.00 548
Post 1NE  10:25 AM 87 55 35% SW1319 19 mph 219° @ 1000 AM 87 76 52 35 30.14" 0 0.00 613
Rotan 5W  10:25 AM 86 62 44% SW2023 30 mph 212° @ 0910 AM 87 75 55 40 30.12" 0 0.00 657
San Angelo 7NW  10:25 AM 86 61 45% S812 14 mph 200° @ 1020 AM 86 71 76 38 30.12" 0 0.00 574
Seagraves 1SW  10:25 AM 85 56 39% SW913 17 mph 200° @ 0935 AM 85 66 72 39 30.19" 0 0.00 583
Seminole 2NNE  10:25 AM 83 54 39% S912 19 mph 192° @ 0135 AM 83 68 66 39 30.19" 0 0.00 631
Sierra Blanca 1SSE  10:25 AM 76 61 58% S45 8 mph 6° @ 0156 AM 77 63 88 57 30.27" 0 0.00 615
Snyder 3E  10:25 AM 85 60 45% SW1014 18 mph 212° @ 1010 AM 85 72 64 45 30.14" 0 0.00 579
Snyder 3SSW  10:25 AM 85 61 44% SW1214 19 mph 212° @ 1010 AM 86 73 58 44 30.14" 0 0.00 604
St. Lawrence 5SW  10:25 AM 85 59 42% S1318 22 mph 180° @ 0845 AM 85 69 57 39 30.16" 0 0.00 611
Stamford 5ESE  10:25 AM 88 65 46% SW1113 17 mph 221° @ 0923 AM 88 74 67 46 30.09" 0 0.00 629
Sterling City 4WSW  10:25 AM 86 62 44% S1013 21 mph 172° @ 0855 AM 86 73 61 34 30.15" 0 0.00 530
Sundown 8WSW  10:25 AM 86 56 37% SW1318 20 mph 204° @ 0955 AM 86 64 76 37 30.19" 0 0.00 580
Sweetwater 11SW   10:25 AM 85 64 49% SW1215 21 mph 202° @ 0911 AM 85 73 64 41 30.16" 0 0.00 627
Tahoka 3NNE  10:25 AM 86 55 36% SW1214 19 mph 205° @ 0938 AM 86 69 66 36 30.17" 0 0.00 619
Tarzan 2WNW  10:25 AM 85 59 42% S1113 18 mph 207° @ 0948 AM 85 72 57 42 30.17" 0 0.00 652
Tatum NM 2SW  10:25 AM 86 53 33% S1316 20 mph 199° @ 0950 AM 86 64 71 33 30.22" 0 0.00 614
Throckmorton 1SW  10:25 AM 90 64 41% SW1519 25 mph 232° @ 0918 AM 90 77 58 41 30.07" 0 0.00 643
Van Horn 3ENE  10:25 AM 76 63 62% SW45 8 mph 229° @ 0753 AM 76 64 98 61 30.23" 0 0.01 614
Wall 2E  10:25 AM 87 60 41% SW1114 19 mph 164° @ 0106 AM 87 76 70 38 30.13" 0 0.00 650
Weinert 2NNE  10:25 AM 90 62 39% SW1719 25 mph 229° @ 0927 AM 91 75 60 39 30.08" 0 0.00 639
Welch  10:25 AM 85 59 41% SW1115 20 mph 198° @ 0923 AM 85 69 66 41 30.19" 0 0.00 630

West Texas Mesonet Home   Site Map/Menu  NWS Lubbock Soil Data  Daily Summary Page  24hr Precip  72hr Precip  Google Plot